createdAt,value
2019-02-23T00:02:09.938Z,6.13
2019-02-23T00:04:40.793Z,6.47
2019-02-23T00:07:11.236Z,5.70
2019-02-23T00:09:41.644Z,5.00
2019-02-23T00:12:12.041Z,5.70
2019-02-23T00:14:44.626Z,4.50
2019-02-23T00:17:15.010Z,5.37
2019-02-23T00:19:45.452Z,5.63
2019-02-23T00:22:16.388Z,8.10
2019-02-23T00:24:46.816Z,6.90
2019-02-23T00:27:17.254Z,6.67
2019-02-23T00:29:47.703Z,6.43
2019-02-23T00:32:18.224Z,5.83
2019-02-23T00:34:48.649Z,5.97
2019-02-23T00:37:19.177Z,4.87
2019-02-23T00:39:49.742Z,5.10
2019-02-23T00:42:20.172Z,4.87
2019-02-23T00:44:50.607Z,4.90
2019-02-23T00:47:21.040Z,4.73
2019-02-23T00:49:51.448Z,4.53
2019-02-23T00:52:22.045Z,5.17
2019-02-23T00:54:52.518Z,4.60
2019-02-23T00:57:22.912Z,5.17
2019-02-23T00:59:53.368Z,5.27
2019-02-23T01:02:23.763Z,5.83
2019-02-23T01:04:54.773Z,5.30
2019-02-23T01:07:25.204Z,6.43
2019-02-23T01:09:55.704Z,4.83
2019-02-23T01:12:26.109Z,6.10
2019-02-23T01:14:56.636Z,5.73
2019-02-23T01:17:26.996Z,6.23
2019-02-23T01:19:57.683Z,9.00
2019-02-23T01:22:28.070Z,7.30
2019-02-23T01:24:58.531Z,6.30
2019-02-23T01:27:29.055Z,6.30
2019-02-23T01:29:59.521Z,7.20
2019-02-23T01:32:29.984Z,6.10
2019-02-23T01:35:00.434Z,6.13
2019-02-23T01:37:30.837Z,5.47
2019-02-23T01:40:01.304Z,6.57
2019-02-23T01:42:31.761Z,5.77
2019-02-23T01:45:02.160Z,6.60
2019-02-23T01:47:32.631Z,6.13
2019-02-23T01:50:03.024Z,5.87
2019-02-23T01:52:33.483Z,5.97
2019-02-23T01:55:04.148Z,4.97
2019-02-23T01:57:34.602Z,6.10
2019-02-23T02:00:07.976Z,5.40
2019-02-23T02:02:40.295Z,6.80
2019-02-23T02:05:12.276Z,7.53
2019-02-23T02:07:42.737Z,6.90
2019-02-23T02:10:13.238Z,8.50
2019-02-23T02:12:43.803Z,8.37
2019-02-23T02:15:15.514Z,6.87
2019-02-23T02:17:49.160Z,7.23
2019-02-23T02:20:19.596Z,7.80
2019-02-23T02:22:50.035Z,7.77
2019-02-23T02:25:20.564Z,7.23
2019-02-23T02:27:51.121Z,7.53
2019-02-23T02:30:21.625Z,7.77
2019-02-23T02:32:52.059Z,7.47
2019-02-23T02:35:23.388Z,7.47
2019-02-23T02:37:53.804Z,8.10
2019-02-23T02:40:24.255Z,7.13
2019-02-23T02:42:57.550Z,7.37
2019-02-23T02:45:28.030Z,6.77
2019-02-23T02:48:00.126Z,6.97
2019-02-23T02:50:30.574Z,6.80
2019-02-23T02:53:01.011Z,6.03
2019-02-23T02:55:31.535Z,6.50
2019-02-23T02:58:04.987Z,6.00
2019-02-23T03:00:35.388Z,7.30
2019-02-23T03:03:05.970Z,6.80
2019-02-23T03:05:36.424Z,10.48
2019-02-23T03:08:06.877Z,7.97
2019-02-23T03:10:37.298Z,8.00
2019-02-23T03:13:07.696Z,6.97
2019-02-23T03:15:38.246Z,7.83
2019-02-23T03:18:08.631Z,7.80
2019-02-23T03:20:39.106Z,7.23
2019-02-23T03:23:09.633Z,8.57
2019-02-23T03:25:40.059Z,7.07
2019-02-23T03:28:10.592Z,7.37
2019-02-23T03:30:41.030Z,6.90
2019-02-23T03:33:11.503Z,9.97
2019-02-23T03:35:41.964Z,8.33
2019-02-23T03:38:12.380Z,7.97
2019-02-23T03:40:42.849Z,8.33
2019-02-23T03:43:13.305Z,7.53
2019-02-23T03:45:43.776Z,9.27
2019-02-23T03:48:14.176Z,7.97
2019-02-23T03:50:48.991Z,8.93
2019-02-23T03:53:16.738Z,8.10
2019-02-23T03:55:47.199Z,8.40
2019-02-23T03:58:18.040Z,7.70
2019-02-23T04:00:48.578Z,5.97
2019-02-23T04:03:19.055Z,8.20
2019-02-23T04:05:49.544Z,8.47
2019-02-23T04:08:20.019Z,8.23
2019-02-23T04:10:50.535Z,8.67
2019-02-23T04:13:20.996Z,6.57
2019-02-23T04:15:51.639Z,7.30
2019-02-23T04:18:22.869Z,7.07
2019-02-23T04:21:01.137Z,7.40
2019-02-23T04:23:26.340Z,6.80
2019-02-23T04:25:56.776Z,7.33
2019-02-23T04:28:27.257Z,8.20
2019-02-23T04:30:57.820Z,7.50
2019-02-23T04:33:28.845Z,7.73
2019-02-23T04:35:59.320Z,7.93
2019-02-23T04:38:31.338Z,7.33
2019-02-23T04:41:02.316Z,6.77
2019-02-23T04:43:32.762Z,8.20
2019-02-23T04:46:06.073Z,8.70
2019-02-23T04:48:36.546Z,8.03
2019-02-23T04:51:14.339Z,12.07
2019-02-23T04:53:39.217Z,8.67
2019-02-23T04:56:09.721Z,8.23
2019-02-23T04:58:40.099Z,6.70
2019-02-23T05:01:13.476Z,8.17
2019-02-23T05:03:43.912Z,8.50
2019-02-23T05:06:14.831Z,8.73
2019-02-23T05:08:45.270Z,7.50
2019-02-23T05:11:15.786Z,7.00
2019-02-23T05:13:46.291Z,8.00
2019-02-23T05:16:16.984Z,10.40
2019-02-23T05:18:47.574Z,7.70
2019-02-23T05:21:26.000Z,8.13
2019-02-23T05:23:50.309Z,7.77
2019-02-23T05:26:20.754Z,8.10
2019-02-23T05:28:52.629Z,6.47
2019-02-23T05:31:24.400Z,7.17
2019-02-23T05:33:54.859Z,8.67
2019-02-23T05:36:25.747Z,9.98
2019-02-23T05:38:56.253Z,8.87
2019-02-23T05:41:30.522Z,8.77
2019-02-23T05:44:01.055Z,9.83
2019-02-23T05:46:31.490Z,7.33
2019-02-23T05:49:01.965Z,10.10
2019-02-23T05:51:38.777Z,7.90
2019-02-23T05:54:04.563Z,8.53
2019-02-23T05:56:35.959Z,10.27
2019-02-23T05:59:06.511Z,9.63
2019-02-23T06:01:38.413Z,8.00
2019-02-23T06:04:10.123Z,8.60
2019-02-23T06:06:42.269Z,7.43
2019-02-23T06:09:12.968Z,8.20
2019-02-23T06:11:43.368Z,7.53
2019-02-23T06:14:13.760Z,6.53
2019-02-23T06:16:44.333Z,7.83
2019-02-23T06:19:14.759Z,7.30
2019-02-23T06:21:53.672Z,6.57
2019-02-23T06:24:20.321Z,6.87
2019-02-23T06:26:51.625Z,7.57
2019-02-23T06:29:27.060Z,5.20
2019-02-23T06:32:19.908Z,6.10
2019-02-23T06:35:10.633Z,6.50
2019-02-23T06:37:41.365Z,5.87
2019-02-23T06:43:30.961Z,6.07
2019-02-23T06:46:26.438Z,6.43
2019-02-23T06:49:34.691Z,6.27
2019-02-23T06:58:18.064Z,6.33
2019-02-23T07:00:57.577Z,5.30
2019-02-23T07:03:39.617Z,6.90
2019-02-23T07:06:12.052Z,5.60
2019-02-23T07:09:04.590Z,5.23
2019-02-23T07:14:33.038Z,5.20
2019-02-23T07:20:21.941Z,5.80
2019-02-23T07:24:36.482Z,6.05
2019-02-23T07:29:06.559Z,5.80
2019-02-23T07:31:37.125Z,4.67
2019-02-23T07:34:08.242Z,5.10
2019-02-23T07:36:38.733Z,4.20
2019-02-23T07:39:19.525Z,5.50
2019-02-23T07:41:54.272Z,5.20
2019-02-23T07:44:33.162Z,4.97
2019-02-23T07:47:03.794Z,5.37
2019-02-23T07:49:35.292Z,5.40
2019-02-23T07:52:07.196Z,5.37
2019-02-23T07:54:43.488Z,5.50
2019-02-23T07:57:20.470Z,5.17
2019-02-23T07:59:49.460Z,5.33
2019-02-23T08:02:25.206Z,4.50
2019-02-23T08:04:55.455Z,5.50
2019-02-23T08:07:28.523Z,5.07
2019-02-23T08:09:59.582Z,5.30
2019-02-23T08:12:34.516Z,5.67
2019-02-23T08:15:07.949Z,5.40
2019-02-23T08:17:38.522Z,5.37
2019-02-23T08:20:11.215Z,4.67
2019-02-23T08:22:42.250Z,4.27
2019-02-23T08:25:16.278Z,5.95
2019-02-23T08:27:50.109Z,5.13
2019-02-23T08:30:22.196Z,5.83
2019-02-23T08:32:52.765Z,6.07
2019-02-23T08:35:24.205Z,5.60
2019-02-23T08:37:56.221Z,5.73
2019-02-23T08:40:28.348Z,6.17
2019-02-23T08:42:59.276Z,6.70
2019-02-23T08:45:29.819Z,7.40
2019-02-23T08:48:03.335Z,6.60
2019-02-23T08:50:35.723Z,6.03
2019-02-23T08:53:06.293Z,5.63
2019-02-23T08:55:49.741Z,5.83
2019-02-23T08:58:20.296Z,6.07
2019-02-23T09:00:50.908Z,5.93
2019-02-23T09:03:21.508Z,6.60
2019-02-23T09:05:51.930Z,6.90
2019-02-23T09:08:22.389Z,7.53
2019-02-23T09:10:52.893Z,7.30
2019-02-23T09:13:35.407Z,7.90
2019-02-23T09:16:07.455Z,6.27
2019-02-23T09:18:38.162Z,7.13
2019-02-23T09:26:35.101Z,5.70
2019-02-23T09:29:25.442Z,6.00
2019-02-23T09:32:00.432Z,7.13
2019-02-23T09:34:28.325Z,6.10
2019-02-23T09:36:58.783Z,4.33
2019-02-23T09:39:29.236Z,5.33
2019-02-23T09:42:07.251Z,5.13
2019-02-23T09:44:31.867Z,5.30
2019-02-23T09:47:02.578Z,4.83
2019-02-23T09:49:33.001Z,5.50
2019-02-23T09:52:03.436Z,6.17
2019-02-23T09:54:33.945Z,5.77
2019-02-23T09:57:04.387Z,5.13
2019-02-23T09:59:34.880Z,5.70
2019-02-23T10:02:05.501Z,6.23
2019-02-23T10:04:36.737Z,5.90
2019-02-23T10:07:07.206Z,5.80
2019-02-23T10:09:37.810Z,8.03
2019-02-23T10:12:08.254Z,5.10
2019-02-23T10:14:38.706Z,5.67
2019-02-23T10:17:10.201Z,5.57
2019-02-23T10:19:43.013Z,5.50
2019-02-23T10:22:13.287Z,5.07
2019-02-23T10:24:45.296Z,5.03
2019-02-23T10:27:15.792Z,5.17
2019-02-23T10:29:46.335Z,5.53
2019-02-23T10:32:16.696Z,6.37
2019-02-23T10:34:47.298Z,6.47
2019-02-23T10:37:18.299Z,6.20
2019-02-23T10:39:48.882Z,6.60
2019-02-23T10:42:19.426Z,6.50
2019-02-23T10:44:52.440Z,6.10
2019-02-23T10:47:24.300Z,6.00
2019-02-23T10:49:56.874Z,5.97
2019-02-23T10:52:33.113Z,6.83
2019-02-23T10:55:07.027Z,5.23
2019-02-23T10:57:37.569Z,5.10
2019-02-23T11:00:16.174Z,6.85
2019-02-23T11:02:46.680Z,6.20
2019-02-23T11:05:17.474Z,6.73
2019-02-23T11:07:48.411Z,6.07
2019-02-23T11:10:20.568Z,6.70
2019-02-23T11:13:01.329Z,6.27
2019-02-23T11:34:16.267Z,5.03
2019-02-23T11:36:46.740Z,4.83
2019-02-23T11:39:17.371Z,5.47
2019-02-23T11:41:47.890Z,5.50
2019-02-23T11:44:18.814Z,5.07
2019-02-23T11:47:00.325Z,5.13
2019-02-23T11:49:31.525Z,5.50
2019-02-23T11:52:02.118Z,5.60
2019-02-23T11:54:35.954Z,6.58
2019-02-23T11:57:07.425Z,5.57
2019-02-23T11:59:44.170Z,5.90
2019-02-23T12:02:19.128Z,5.77
2019-02-23T12:04:49.835Z,6.17
2019-02-23T12:07:28.245Z,5.83
2019-02-23T12:10:00.696Z,5.53
2019-02-23T12:12:33.955Z,5.83
2019-02-23T12:15:09.670Z,5.17
2019-02-23T12:17:41.586Z,6.27
2019-02-23T12:20:15.078Z,6.27
2019-02-23T12:22:48.045Z,6.27
2019-02-23T12:25:19.794Z,6.40
2019-02-23T12:27:50.450Z,6.10
2019-02-23T12:30:23.700Z,6.10
2019-02-23T12:32:59.379Z,6.67
2019-02-23T12:35:30.248Z,5.17
2019-02-23T12:38:00.895Z,6.57
2019-02-23T12:40:32.568Z,5.47
2019-02-23T12:46:21.793Z,6.43
2019-02-23T12:49:05.197Z,5.93
2019-02-23T12:51:35.689Z,6.77
2019-02-23T12:54:16.467Z,6.57
2019-02-23T12:56:42.456Z,6.70
2019-02-23T12:59:13.609Z,6.70
2019-02-23T13:01:45.547Z,7.20
2019-02-23T13:04:16.019Z,7.57
2019-02-23T13:06:46.481Z,7.00
2019-02-23T13:09:19.282Z,7.27
2019-02-23T13:12:01.536Z,7.17
2019-02-23T13:14:43.802Z,6.87
2019-02-23T13:17:35.395Z,7.47
2019-02-23T13:20:17.736Z,7.63
2019-02-23T13:23:12.167Z,6.87
2019-02-23T13:26:02.138Z,7.10
2019-02-23T13:28:44.513Z,7.47
2019-02-23T13:31:17.896Z,6.47
2019-02-23T13:34:03.018Z,8.30
2019-02-23T13:36:42.135Z,7.27
2019-02-23T13:39:20.832Z,7.10
2019-02-23T13:42:09.060Z,6.77
2019-02-23T13:45:00.768Z,6.70
2019-02-23T13:47:43.116Z,6.83
2019-02-23T13:50:28.439Z,8.57
2019-02-23T13:53:16.585Z,8.20
2019-02-23T13:56:01.929Z,6.80
2019-02-23T13:58:38.589Z,7.07
2019-02-23T14:01:31.860Z,8.68
2019-02-23T14:04:36.945Z,8.47
2019-02-23T14:07:27.812Z,7.83
2019-02-23T14:10:31.120Z,7.50
2019-02-23T14:13:22.634Z,8.13
2019-02-23T14:15:56.107Z,8.33
2019-02-23T14:18:41.273Z,8.07
2019-02-23T14:21:17.683Z,8.67
2019-02-23T14:24:00.078Z,7.00
2019-02-23T14:26:33.449Z,7.40
2019-02-23T14:29:12.422Z,7.70
2019-02-23T14:31:51.705Z,7.80
2019-02-23T14:34:44.805Z,7.77
2019-02-23T14:37:30.299Z,7.30
2019-02-23T14:40:15.642Z,6.57
2019-02-23T14:43:14.859Z,8.30
2019-02-23T14:45:58.174Z,7.77
2019-02-23T14:48:31.492Z,8.37
2019-02-23T14:51:13.755Z,7.03
2019-02-23T14:54:17.066Z,7.63
2019-02-23T14:57:02.337Z,7.07
2019-02-23T14:59:53.746Z,8.40
2019-02-23T15:02:32.799Z,7.47
2019-02-23T15:05:20.961Z,7.17
2019-02-23T15:08:29.048Z,7.50
2019-02-23T15:11:02.773Z,6.53
2019-02-23T15:13:39.378Z,7.87
2019-02-23T15:16:33.762Z,6.43
2019-02-23T15:19:11.648Z,6.27
2019-02-23T15:21:51.888Z,7.10
2019-02-23T15:24:25.290Z,7.03
2019-02-23T15:26:58.636Z,8.78
2019-02-23T15:29:38.089Z,9.03
2019-02-23T15:32:24.080Z,7.37
2019-02-23T15:35:03.416Z,7.27
2019-02-23T15:37:45.933Z,7.53
2019-02-23T15:40:27.672Z,6.73
2019-02-23T15:43:10.239Z,6.87
2019-02-23T15:46:00.019Z,6.60
2019-02-23T15:48:48.591Z,7.77
2019-02-23T15:51:19.072Z,7.17
2019-02-23T15:53:49.531Z,7.63
2019-02-23T15:56:20.615Z,6.73
2019-02-23T15:58:51.013Z,7.10
2019-02-23T16:01:21.453Z,9.10
2019-02-23T16:03:51.874Z,7.00
2019-02-23T16:06:22.294Z,7.30
2019-02-23T16:08:52.710Z,7.60
2019-02-23T16:11:23.158Z,6.47
2019-02-23T16:13:53.580Z,7.37
2019-02-23T16:16:24.099Z,7.23
2019-02-23T16:18:54.545Z,7.33
2019-02-23T16:21:25.068Z,7.23
2019-02-23T16:23:56.119Z,7.20
2019-02-23T16:26:26.608Z,7.20
2019-02-23T16:28:57.363Z,8.20
2019-02-23T16:31:27.789Z,7.90
2019-02-23T16:34:01.333Z,7.33
2019-02-23T16:36:32.404Z,6.53
2019-02-23T16:39:07.360Z,7.17
2019-02-23T16:41:38.071Z,7.10
2019-02-23T16:44:08.857Z,6.87
2019-02-23T16:46:39.330Z,6.17
2019-02-23T16:49:10.322Z,6.33
2019-02-23T16:51:44.046Z,6.27
2019-02-23T16:54:14.569Z,6.80
2019-02-23T16:56:44.969Z,7.60
2019-02-23T16:59:15.992Z,6.97
2019-02-23T17:01:46.347Z,6.10
2019-02-23T17:04:16.868Z,5.60
2019-02-23T17:06:47.304Z,5.00
2019-02-23T17:09:20.658Z,5.90
2019-02-23T17:11:51.087Z,5.83
2019-02-23T17:14:24.678Z,5.87
2019-02-23T17:16:55.280Z,5.97
2019-02-23T17:19:25.838Z,6.60
2019-02-23T17:21:58.758Z,6.33
2019-02-23T17:24:29.276Z,6.07
2019-02-23T17:26:59.894Z,6.67
2019-02-23T17:29:30.906Z,6.27
2019-02-23T17:32:01.333Z,5.90
2019-02-23T17:34:31.778Z,6.47
2019-02-23T17:37:02.417Z,6.90
2019-02-23T17:39:33.000Z,6.33
2019-02-23T17:42:06.589Z,8.63
2019-02-23T17:44:41.987Z,6.97
2019-02-23T17:47:15.426Z,6.70
2019-02-23T17:52:18.554Z,6.73
2019-02-23T18:44:19.197Z,10.47
2019-02-23T18:46:57.263Z,9.40
2019-02-23T19:54:00.796Z,9.37
2019-02-23T19:56:57.641Z,10.00
2019-02-23T20:00:04.025Z,9.63
2019-02-23T20:02:48.497Z,9.27
2019-02-23T20:05:24.065Z,7.83
2019-02-23T20:07:56.295Z,7.20
2019-02-23T20:10:32.067Z,6.47
2019-02-23T20:13:07.431Z,6.40
2019-02-23T20:15:43.324Z,6.00
2019-02-23T20:18:14.552Z,6.00
2019-02-23T20:20:45.559Z,6.77
2019-02-23T20:23:16.816Z,6.60
2019-02-23T20:25:47.595Z,7.27
2019-02-23T20:28:19.634Z,7.20
2019-02-23T20:30:52.099Z,7.13
2019-02-23T20:33:26.965Z,6.70
2019-02-23T20:35:59.131Z,7.30
2019-02-23T20:38:30.909Z,7.60
2019-02-23T20:41:01.527Z,7.57
2019-02-23T20:47:05.236Z,7.40
2019-02-23T20:49:36.905Z,7.13
2019-02-23T20:52:08.228Z,9.83
2019-02-23T20:54:38.805Z,7.23
2019-02-23T20:57:14.039Z,7.20
2019-02-23T20:59:48.520Z,7.20
2019-02-23T21:02:19.504Z,8.23
2019-02-23T21:04:50.247Z,10.80
2019-02-23T21:07:22.241Z,8.87
2019-02-23T21:09:53.397Z,8.37
2019-02-23T21:12:25.506Z,8.60
2019-02-23T21:14:56.352Z,9.00
2019-02-23T21:17:27.831Z,8.83
2019-02-23T21:19:58.329Z,8.17
2019-02-23T21:22:30.292Z,7.33
2019-02-23T21:25:02.077Z,7.10
2019-02-23T21:28:07.903Z,7.53
2019-02-23T21:30:38.358Z,7.27
2019-02-23T21:33:08.995Z,8.30
2019-02-23T21:35:40.360Z,7.73
2019-02-23T21:38:10.941Z,3.30
2019-02-23T21:40:44.799Z,7.33
2019-02-23T21:43:17.724Z,6.80
2019-02-23T21:45:48.149Z,6.93
2019-02-23T21:48:18.732Z,6.83
2019-02-23T21:50:51.037Z,7.17
2019-02-23T21:53:21.609Z,7.27
2019-02-23T21:55:55.012Z,6.80
2019-02-23T21:58:26.582Z,9.50
2019-02-23T22:00:57.174Z,7.37
2019-02-23T22:03:27.760Z,7.13
2019-02-23T22:05:58.257Z,6.97
2019-02-23T22:08:31.405Z,7.37
2019-02-23T22:11:01.948Z,5.57
2019-02-23T22:13:32.438Z,6.63
2019-02-23T22:16:04.337Z,6.33
2019-02-23T22:18:36.023Z,6.43
2019-02-23T22:21:06.612Z,6.53
2019-02-23T22:23:37.180Z,7.70
2019-02-23T22:26:09.026Z,6.50
2019-02-23T22:28:40.483Z,7.07
2019-02-23T22:31:12.524Z,6.67
2019-02-23T22:33:44.589Z,6.97
2019-02-23T22:36:15.259Z,6.27
2019-02-23T22:38:46.772Z,6.93
2019-02-23T22:41:17.226Z,7.13
2019-02-23T22:43:48.725Z,6.30
2019-02-23T22:46:19.192Z,6.80
2019-02-23T22:48:49.661Z,6.57
2019-02-23T22:51:20.652Z,6.40
2019-02-23T22:53:51.132Z,7.00
2019-02-23T22:56:21.626Z,7.07
2019-02-23T22:58:56.509Z,6.80
2019-02-23T23:01:26.973Z,7.30
2019-02-23T23:03:57.587Z,6.87
2019-02-23T23:06:28.072Z,6.87
2019-02-23T23:08:58.549Z,7.73
2019-02-23T23:11:29.045Z,6.20
2019-02-23T23:13:59.544Z,5.97
2019-02-23T23:16:30.059Z,5.70
2019-02-23T23:19:02.005Z,6.00
2019-02-23T23:21:32.490Z,6.73
2019-02-23T23:24:04.833Z,5.37
2019-02-23T23:26:35.260Z,5.30
2019-02-23T23:29:05.839Z,5.57
2019-02-23T23:31:37.365Z,6.13
2019-02-23T23:34:07.863Z,6.10
2019-02-23T23:36:38.402Z,5.57
2019-02-23T23:39:08.956Z,5.20
2019-02-23T23:41:40.887Z,5.63
2019-02-23T23:44:12.733Z,5.50
2019-02-23T23:46:43.185Z,5.93
2019-02-23T23:49:13.648Z,5.53
2019-02-23T23:51:44.136Z,6.27
2019-02-23T23:54:14.686Z,5.67
2019-02-23T23:56:45.187Z,5.67
2019-02-23T23:59:15.745Z,5.30
